sensor_id;sensor_type;location;lat;lon;timestamp;P1;durP1;ratioP1;P2;durP2;ratioP2
73452;SDS011;61687;56.232;43.854;2022-09-16T00:01:40;21.17;;;11.70;;
73452;SDS011;61687;56.232;43.854;2022-09-16T00:04:06;26.33;;;12.55;;
73452;SDS011;61687;56.232;43.854;2022-09-16T00:06:31;23.95;;;13.27;;
73452;SDS011;61687;56.232;43.854;2022-09-16T00:08:58;22.93;;;12.53;;
73452;SDS011;61687;56.232;43.854;2022-09-16T00:11:28;22.48;;;12.30;;
73452;SDS011;61687;56.232;43.854;2022-09-16T00:13:58;22.08;;;12.57;;
73452;SDS011;61687;56.232;43.854;2022-09-16T00:16:25;21.73;;;12.57;;
73452;SDS011;61687;56.232;43.854;2022-09-16T00:18:53;21.60;;;12.07;;
73452;SDS011;61687;56.232;43.854;2022-09-16T00:21:20;24.60;;;12.97;;
73452;SDS011;61687;56.232;43.854;2022-09-16T00:23:46;22.05;;;13.02;;
73452;SDS011;61687;56.232;43.854;2022-09-16T00:26:12;24.75;;;12.55;;
73452;SDS011;61687;56.232;43.854;2022-09-16T00:28:38;21.60;;;12.13;;
73452;SDS011;61687;56.232;43.854;2022-09-16T00:31:04;23.40;;;12.47;;
73452;SDS011;61687;56.232;43.854;2022-09-16T00:33:31;23.65;;;12.48;;
73452;SDS011;61687;56.232;43.854;2022-09-16T00:36:04;23.13;;;12.18;;
73452;SDS011;61687;56.232;43.854;2022-09-16T00:38:34;21.90;;;11.90;;
73452;SDS011;61687;56.232;43.854;2022-09-16T00:41:01;22.93;;;11.40;;
73452;SDS011;61687;56.232;43.854;2022-09-16T00:43:27;22.42;;;12.07;;
73452;SDS011;61687;56.232;43.854;2022-09-16T00:46:00;19.02;;;10.95;;
73452;SDS011;61687;56.232;43.854;2022-09-16T00:48:29;22.85;;;12.20;;
73452;SDS011;61687;56.232;43.854;2022-09-16T00:51:04;20.48;;;11.95;;
73452;SDS011;61687;56.232;43.854;2022-09-16T00:53:35;21.73;;;12.23;;
73452;SDS011;61687;56.232;43.854;2022-09-16T00:56:04;26.63;;;12.50;;
73452;SDS011;61687;56.232;43.854;2022-09-16T00:58:34;23.15;;;12.40;;
73452;SDS011;61687;56.232;43.854;2022-09-16T01:01:07;19.60;;;11.65;;
73452;SDS011;61687;56.232;43.854;2022-09-16T01:03:34;22.52;;;12.50;;
73452;SDS011;61687;56.232;43.854;2022-09-16T01:06:09;19.00;;;12.20;;
73452;SDS011;61687;56.232;43.854;2022-09-16T01:08:39;19.55;;;11.63;;
73452;SDS011;61687;56.232;43.854;2022-09-16T01:11:07;23.80;;;11.63;;
73452;SDS011;61687;56.232;43.854;2022-09-16T01:13:34;22.73;;;11.95;;
73452;SDS011;61687;56.232;43.854;2022-09-16T01:18:42;20.20;;;11.43;;
73452;SDS011;61687;56.232;43.854;2022-09-16T01:37:38;17.48;;;11.43;;
73452;SDS011;61687;56.232;43.854;2022-09-16T01:45:35;24.88;;;13.23;;
73452;SDS011;61687;56.232;43.854;2022-09-16T01:51:13;24.92;;;12.27;;
73452;SDS011;61687;56.232;43.854;2022-09-16T01:53:53;22.77;;;12.35;;
73452;SDS011;61687;56.232;43.854;2022-09-16T01:56:23;21.40;;;12.53;;
73452;SDS011;61687;56.232;43.854;2022-09-16T01:58:58;26.70;;;12.70;;
73452;SDS011;61687;56.232;43.854;2022-09-16T02:04:29;23.85;;;13.40;;
73452;SDS011;61687;56.232;43.854;2022-09-16T02:06:59;24.40;;;12.05;;
73452;SDS011;61687;56.232;43.854;2022-09-16T02:09:29;22.30;;;12.10;;
73452;SDS011;61687;56.232;43.854;2022-09-16T02:12:00;29.02;;;13.23;;
73452;SDS011;61687;56.232;43.854;2022-09-16T02:14:32;25.42;;;12.15;;
73452;SDS011;61687;56.232;43.854;2022-09-16T02:17:09;24.73;;;12.75;;
73452;SDS011;61687;56.232;43.854;2022-09-16T02:19:40;22.52;;;12.77;;
73452;SDS011;61687;56.232;43.854;2022-09-16T02:22:12;23.20;;;12.43;;
73452;SDS011;61687;56.232;43.854;2022-09-16T02:24:42;26.25;;;13.70;;
73452;SDS011;61687;56.232;43.854;2022-09-16T02:27:13;23.90;;;11.98;;
73452;SDS011;61687;56.232;43.854;2022-09-16T02:29:46;21.98;;;11.75;;
73452;SDS011;61687;56.232;43.854;2022-09-16T02:32:17;20.67;;;12.27;;
73452;SDS011;61687;56.232;43.854;2022-09-16T02:34:48;22.50;;;12.13;;
73452;SDS011;61687;56.232;43.854;2022-09-16T02:37:17;24.65;;;13.98;;
73452;SDS011;61687;56.232;43.854;2022-09-16T02:39:52;24.13;;;12.95;;
73452;SDS011;61687;56.232;43.854;2022-09-16T02:42:22;22.50;;;12.75;;
73452;SDS011;61687;56.232;43.854;2022-09-16T02:44:48;23.15;;;12.98;;
73452;SDS011;61687;56.232;43.854;2022-09-16T02:47:25;23.33;;;12.77;;
73452;SDS011;61687;56.232;43.854;2022-09-16T02:56:14;24.10;;;13.13;;
73452;SDS011;61687;56.232;43.854;2022-09-16T02:58:47;27.20;;;13.05;;
73452;SDS011;61687;56.232;43.854;2022-09-16T03:01:13;27.10;;;13.57;;
73452;SDS011;61687;56.232;43.854;2022-09-16T03:03:42;32.10;;;14.32;;
73452;SDS011;61687;56.232;43.854;2022-09-16T03:08:34;34.40;;;14.60;;
73452;SDS011;61687;56.232;43.854;2022-09-16T03:11:44;31.73;;;14.33;;
73452;SDS011;61687;56.232;43.854;2022-09-16T03:27:51;28.33;;;13.57;;
73452;SDS011;61687;56.232;43.854;2022-09-16T03:30:22;25.70;;;13.60;;
73452;SDS011;61687;56.232;43.854;2022-09-16T03:35:18;25.37;;;13.00;;
73452;SDS011;61687;56.232;43.854;2022-09-16T03:37:52;27.95;;;13.60;;
73452;SDS011;61687;56.232;43.854;2022-09-16T03:40:20;21.42;;;12.15;;
73452;SDS011;61687;56.232;43.854;2022-09-16T03:42:48;23.42;;;12.55;;
73452;SDS011;61687;56.232;43.854;2022-09-16T03:45:15;24.55;;;13.23;;
73452;SDS011;61687;56.232;43.854;2022-09-16T03:47:45;21.43;;;12.53;;
73452;SDS011;61687;56.232;43.854;2022-09-16T03:50:14;21.40;;;13.00;;
73452;SDS011;61687;56.232;43.854;2022-09-16T03:52:40;21.58;;;11.50;;
73452;SDS011;61687;56.232;43.854;2022-09-16T03:55:06;20.90;;;13.02;;
73452;SDS011;61687;56.232;43.854;2022-09-16T03:57:34;22.10;;;11.73;;
73452;SDS011;61687;56.232;43.854;2022-09-16T04:00:00;21.40;;;12.20;;
73452;SDS011;61687;56.232;43.854;2022-09-16T04:02:26;21.63;;;12.55;;
73452;SDS011;61687;56.232;43.854;2022-09-16T04:04:52;23.02;;;12.68;;
73452;SDS011;61687;56.232;43.854;2022-09-16T04:07:18;19.10;;;11.37;;
73452;SDS011;61687;56.232;43.854;2022-09-16T04:09:44;22.85;;;12.32;;
73452;SDS011;61687;56.232;43.854;2022-09-16T04:12:10;23.25;;;13.13;;
73452;SDS011;61687;56.232;43.854;2022-09-16T04:14:35;20.93;;;12.50;;
73452;SDS011;61687;56.232;43.854;2022-09-16T04:17:02;20.95;;;12.50;;
73452;SDS011;61687;56.232;43.854;2022-09-16T04:19:28;21.83;;;12.95;;
73452;SDS011;61687;56.232;43.854;2022-09-16T04:21:54;23.13;;;12.32;;
73452;SDS011;61687;56.232;43.854;2022-09-16T04:24:20;23.67;;;12.97;;
73452;SDS011;61687;56.232;43.854;2022-09-16T04:26:45;21.95;;;13.30;;
73452;SDS011;61687;56.232;43.854;2022-09-16T04:29:11;22.53;;;13.53;;
73452;SDS011;61687;56.232;43.854;2022-09-16T04:31:38;22.60;;;13.50;;
73452;SDS011;61687;56.232;43.854;2022-09-16T04:34:06;22.42;;;13.35;;
73452;SDS011;61687;56.232;43.854;2022-09-16T04:36:32;20.92;;;12.85;;
73452;SDS011;61687;56.232;43.854;2022-09-16T04:38:58;21.63;;;12.30;;
73452;SDS011;61687;56.232;43.854;2022-09-16T04:41:24;22.27;;;12.43;;
73452;SDS011;61687;56.232;43.854;2022-09-16T04:43:51;22.95;;;12.85;;
73452;SDS011;61687;56.232;43.854;2022-09-16T04:46:20;21.88;;;12.80;;
73452;SDS011;61687;56.232;43.854;2022-09-16T04:48:47;20.45;;;12.90;;
73452;SDS011;61687;56.232;43.854;2022-09-16T04:51:15;22.10;;;12.70;;
73452;SDS011;61687;56.232;43.854;2022-09-16T04:53:42;22.83;;;13.03;;
73452;SDS011;61687;56.232;43.854;2022-09-16T04:56:09;21.90;;;13.10;;
73452;SDS011;61687;56.232;43.854;2022-09-16T04:58:47;23.17;;;13.63;;
73452;SDS011;61687;56.232;43.854;2022-09-16T05:01:16;20.70;;;13.23;;
73452;SDS011;61687;56.232;43.854;2022-09-16T05:03:45;19.85;;;12.43;;
73452;SDS011;61687;56.232;43.854;2022-09-16T05:06:14;22.10;;;12.80;;
73452;SDS011;61687;56.232;43.854;2022-09-16T05:08:42;21.23;;;12.80;;
73452;SDS011;61687;56.232;43.854;2022-09-16T05:11:10;22.00;;;13.48;;
73452;SDS011;61687;56.232;43.854;2022-09-16T05:13:38;23.23;;;13.27;;
73452;SDS011;61687;56.232;43.854;2022-09-16T05:16:06;22.77;;;12.97;;
73452;SDS011;61687;56.232;43.854;2022-09-16T05:18:37;20.67;;;12.77;;
73452;SDS011;61687;56.232;43.854;2022-09-16T05:21:05;20.25;;;13.30;;
73452;SDS011;61687;56.232;43.854;2022-09-16T05:23:34;19.15;;;12.27;;
73452;SDS011;61687;56.232;43.854;2022-09-16T05:26:03;20.33;;;12.75;;
73452;SDS011;61687;56.232;43.854;2022-09-16T05:28:31;21.00;;;12.03;;
73452;SDS011;61687;56.232;43.854;2022-09-16T05:31:14;22.48;;;12.88;;
73452;SDS011;61687;56.232;43.854;2022-09-16T05:33:41;21.20;;;12.98;;
73452;SDS011;61687;56.232;43.854;2022-09-16T05:36:20;20.58;;;13.32;;
73452;SDS011;61687;56.232;43.854;2022-09-16T05:38:46;18.65;;;12.70;;
73452;SDS011;61687;56.232;43.854;2022-09-16T05:41:13;19.87;;;12.17;;
73452;SDS011;61687;56.232;43.854;2022-09-16T05:43:39;18.58;;;12.10;;
73452;SDS011;61687;56.232;43.854;2022-09-16T05:46:05;20.98;;;12.57;;
73452;SDS011;61687;56.232;43.854;2022-09-16T05:48:32;17.90;;;11.60;;
73452;SDS011;61687;56.232;43.854;2022-09-16T05:51:05;18.75;;;11.77;;
73452;SDS011;61687;56.232;43.854;2022-09-16T05:53:32;16.90;;;11.80;;
73452;SDS011;61687;56.232;43.854;2022-09-16T05:55:59;24.85;;;12.68;;
73452;SDS011;61687;56.232;43.854;2022-09-16T05:58:31;19.35;;;12.02;;
73452;SDS011;61687;56.232;43.854;2022-09-16T06:00:58;18.85;;;12.40;;
73452;SDS011;61687;56.232;43.854;2022-09-16T06:03:26;19.70;;;12.93;;
73452;SDS011;61687;56.232;43.854;2022-09-16T06:05:59;19.90;;;12.53;;
73452;SDS011;61687;56.232;43.854;2022-09-16T06:08:26;20.55;;;12.13;;
73452;SDS011;61687;56.232;43.854;2022-09-16T06:10:54;16.58;;;11.50;;
73452;SDS011;61687;56.232;43.854;2022-09-16T06:13:19;19.10;;;11.40;;
73452;SDS011;61687;56.232;43.854;2022-09-16T06:15:49;17.00;;;11.20;;
73452;SDS011;61687;56.232;43.854;2022-09-16T06:18:18;19.35;;;11.73;;
73452;SDS011;61687;56.232;43.854;2022-09-16T06:20:45;16.75;;;11.23;;
73452;SDS011;61687;56.232;43.854;2022-09-16T06:23:11;18.27;;;11.25;;
73452;SDS011;61687;56.232;43.854;2022-09-16T06:25:38;17.88;;;11.70;;
73452;SDS011;61687;56.232;43.854;2022-09-16T06:28:04;20.50;;;11.63;;
73452;SDS011;61687;56.232;43.854;2022-09-16T06:30:30;18.17;;;11.15;;
73452;SDS011;61687;56.232;43.854;2022-09-16T06:32:56;17.30;;;10.95;;
73452;SDS011;61687;56.232;43.854;2022-09-16T06:35:22;16.20;;;10.63;;
73452;SDS011;61687;56.232;43.854;2022-09-16T06:37:48;17.50;;;10.87;;
73452;SDS011;61687;56.232;43.854;2022-09-16T06:40:14;18.48;;;11.30;;
73452;SDS011;61687;56.232;43.854;2022-09-16T06:42:40;19.52;;;12.18;;
73452;SDS011;61687;56.232;43.854;2022-09-16T06:45:07;17.27;;;11.18;;
73452;SDS011;61687;56.232;43.854;2022-09-16T06:47:33;16.45;;;10.38;;
73452;SDS011;61687;56.232;43.854;2022-09-16T06:49:59;17.07;;;10.70;;
73452;SDS011;61687;56.232;43.854;2022-09-16T06:52:25;22.23;;;11.40;;
73452;SDS011;61687;56.232;43.854;2022-09-16T06:54:52;19.17;;;11.43;;
73452;SDS011;61687;56.232;43.854;2022-09-16T06:57:19;15.93;;;10.40;;
73452;SDS011;61687;56.232;43.854;2022-09-16T06:59:50;18.80;;;10.60;;
73452;SDS011;61687;56.232;43.854;2022-09-16T07:02:18;20.00;;;10.70;;
73452;SDS011;61687;56.232;43.854;2022-09-16T07:04:44;19.25;;;11.82;;
73452;SDS011;61687;56.232;43.854;2022-09-16T07:07:11;16.85;;;9.85;;
73452;SDS011;61687;56.232;43.854;2022-09-16T07:09:37;16.73;;;9.68;;
73452;SDS011;61687;56.232;43.854;2022-09-16T07:12:03;15.47;;;10.40;;
73452;SDS011;61687;56.232;43.854;2022-09-16T07:14:30;18.10;;;11.43;;
73452;SDS011;61687;56.232;43.854;2022-09-16T07:16:58;16.92;;;10.73;;
73452;SDS011;61687;56.232;43.854;2022-09-16T07:19:25;15.68;;;10.68;;
73452;SDS011;61687;56.232;43.854;2022-09-16T07:21:52;17.80;;;11.43;;
73452;SDS011;61687;56.232;43.854;2022-09-16T07:24:19;16.93;;;10.93;;
73452;SDS011;61687;56.232;43.854;2022-09-16T07:26:45;14.98;;;10.25;;
73452;SDS011;61687;56.232;43.854;2022-09-16T07:29:12;14.95;;;10.32;;
73452;SDS011;61687;56.232;43.854;2022-09-16T07:31:39;15.57;;;10.37;;
73452;SDS011;61687;56.232;43.854;2022-09-16T07:34:07;15.43;;;10.00;;
73452;SDS011;61687;56.232;43.854;2022-09-16T07:36:41;17.58;;;10.27;;
73452;SDS011;61687;56.232;43.854;2022-09-16T07:39:09;15.07;;;8.77;;
73452;SDS011;61687;56.232;43.854;2022-09-16T07:41:39;14.60;;;9.05;;
73452;SDS011;61687;56.232;43.854;2022-09-16T07:44:08;13.07;;;9.27;;
73452;SDS011;61687;56.232;43.854;2022-09-16T07:46:36;13.95;;;9.25;;
73452;SDS011;61687;56.232;43.854;2022-09-16T07:49:03;13.75;;;8.93;;
73452;SDS011;61687;56.232;43.854;2022-09-16T07:51:31;16.60;;;9.80;;
73452;SDS011;61687;56.232;43.854;2022-09-16T07:53:59;15.45;;;9.38;;
73452;SDS011;61687;56.232;43.854;2022-09-16T07:56:29;12.70;;;8.60;;
73452;SDS011;61687;56.232;43.854;2022-09-16T07:58:59;13.45;;;7.97;;
73452;SDS011;61687;56.232;43.854;2022-09-16T08:01:25;15.18;;;9.00;;
73452;SDS011;61687;56.232;43.854;2022-09-16T08:03:52;13.85;;;8.75;;
73452;SDS011;61687;56.232;43.854;2022-09-16T08:06:21;13.57;;;8.95;;
73452;SDS011;61687;56.232;43.854;2022-09-16T08:08:50;18.50;;;9.73;;
73452;SDS011;61687;56.232;43.854;2022-09-16T08:11:17;13.32;;;9.02;;
73452;SDS011;61687;56.232;43.854;2022-09-16T08:13:44;13.50;;;8.57;;
73452;SDS011;61687;56.232;43.854;2022-09-16T08:16:11;13.07;;;8.25;;
73452;SDS011;61687;56.232;43.854;2022-09-16T08:18:39;11.13;;;7.80;;
73452;SDS011;61687;56.232;43.854;2022-09-16T08:21:06;14.00;;;8.63;;
73452;SDS011;61687;56.232;43.854;2022-09-16T08:23:43;11.75;;;7.45;;
73452;SDS011;61687;56.232;43.854;2022-09-16T08:26:09;12.48;;;8.05;;
73452;SDS011;61687;56.232;43.854;2022-09-16T08:28:37;11.82;;;7.20;;
73452;SDS011;61687;56.232;43.854;2022-09-16T08:31:04;11.10;;;7.70;;
73452;SDS011;61687;56.232;43.854;2022-09-16T08:33:30;12.05;;;7.32;;
73452;SDS011;61687;56.232;43.854;2022-09-16T08:35:57;11.45;;;7.63;;
73452;SDS011;61687;56.232;43.854;2022-09-16T08:38:24;12.25;;;6.85;;
73452;SDS011;61687;56.232;43.854;2022-09-16T08:40:50;10.38;;;6.95;;
73452;SDS011;61687;56.232;43.854;2022-09-16T08:43:31;9.93;;;6.50;;
73452;SDS011;61687;56.232;43.854;2022-09-16T08:46:14;9.75;;;6.50;;
73452;SDS011;61687;56.232;43.854;2022-09-16T08:48:56;10.77;;;6.93;;
73452;SDS011;61687;56.232;43.854;2022-09-16T08:51:32;11.43;;;6.35;;
73452;SDS011;61687;56.232;43.854;2022-09-16T08:54:02;10.93;;;5.72;;
73452;SDS011;61687;56.232;43.854;2022-09-16T08:56:32;9.50;;;6.27;;
73452;SDS011;61687;56.232;43.854;2022-09-16T08:59:02;9.57;;;6.30;;
73452;SDS011;61687;56.232;43.854;2022-09-16T09:01:41;10.82;;;6.57;;
73452;SDS011;61687;56.232;43.854;2022-09-16T09:04:14;10.25;;;6.50;;
73452;SDS011;61687;56.232;43.854;2022-09-16T09:12:38;10.98;;;7.00;;
73452;SDS011;61687;56.232;43.854;2022-09-16T09:15:13;10.45;;;6.97;;
73452;SDS011;61687;56.232;43.854;2022-09-16T09:18:15;10.18;;;6.88;;
73452;SDS011;61687;56.232;43.854;2022-09-16T09:26:03;11.05;;;6.65;;
73452;SDS011;61687;56.232;43.854;2022-09-16T09:42:22;11.85;;;6.65;;
73452;SDS011;61687;56.232;43.854;2022-09-16T09:44:57;10.38;;;6.80;;
73452;SDS011;61687;56.232;43.854;2022-09-16T09:52:56;9.93;;;6.50;;
73452;SDS011;61687;56.232;43.854;2022-09-16T09:55:44;8.90;;;5.97;;
73452;SDS011;61687;56.232;43.854;2022-09-16T09:58:28;9.38;;;5.53;;
73452;SDS011;61687;56.232;43.854;2022-09-16T10:01:12;9.73;;;6.33;;
73452;SDS011;61687;56.232;43.854;2022-09-16T10:03:40;9.25;;;5.78;;
73452;SDS011;61687;56.232;43.854;2022-09-16T10:06:06;8.55;;;5.72;;
73452;SDS011;61687;56.232;43.854;2022-09-16T10:08:45;13.68;;;5.32;;
73452;SDS011;61687;56.232;43.854;2022-09-16T10:13:57;9.67;;;5.30;;
73452;SDS011;61687;56.232;43.854;2022-09-16T10:16:30;7.82;;;5.30;;
73452;SDS011;61687;56.232;43.854;2022-09-16T10:21:48;7.97;;;5.03;;
73452;SDS011;61687;56.232;43.854;2022-09-16T10:24:34;9.05;;;5.15;;
73452;SDS011;61687;56.232;43.854;2022-09-16T10:27:16;7.70;;;4.83;;
73452;SDS011;61687;56.232;43.854;2022-09-16T10:29:42;8.32;;;4.97;;
73452;SDS011;61687;56.232;43.854;2022-09-16T10:32:08;6.20;;;5.00;;
73452;SDS011;61687;56.232;43.854;2022-09-16T10:34:38;7.30;;;4.78;;
73452;SDS011;61687;56.232;43.854;2022-09-16T10:39:41;6.47;;;4.35;;
73452;SDS011;61687;56.232;43.854;2022-09-16T10:42:17;7.45;;;4.85;;
73452;SDS011;61687;56.232;43.854;2022-09-16T10:44:46;9.40;;;4.78;;
73452;SDS011;61687;56.232;43.854;2022-09-16T10:47:22;10.45;;;4.65;;
73452;SDS011;61687;56.232;43.854;2022-09-16T10:49:51;9.20;;;5.40;;
73452;SDS011;61687;56.232;43.854;2022-09-16T10:52:22;7.07;;;4.88;;
73452;SDS011;61687;56.232;43.854;2022-09-16T10:54:49;9.18;;;5.10;;
73452;SDS011;61687;56.232;43.854;2022-09-16T11:10:46;8.38;;;4.60;;
73452;SDS011;61687;56.232;43.854;2022-09-16T11:13:32;6.50;;;4.68;;
73452;SDS011;61687;56.232;43.854;2022-09-16T11:30:08;7.53;;;4.20;;
73452;SDS011;61687;56.232;43.854;2022-09-16T11:32:45;5.55;;;4.20;;
73452;SDS011;61687;56.232;43.854;2022-09-16T11:38:14;4.78;;;3.70;;
73452;SDS011;61687;56.232;43.854;2022-09-16T11:41:09;7.20;;;5.07;;
73452;SDS011;61687;56.232;43.854;2022-09-16T11:53:16;6.40;;;4.25;;
73452;SDS011;61687;56.232;43.854;2022-09-16T11:55:57;5.20;;;3.80;;
73452;SDS011;61687;56.232;43.854;2022-09-16T12:01:31;5.85;;;4.72;;
73452;SDS011;61687;56.232;43.854;2022-09-16T12:04:36;5.97;;;4.38;;
73452;SDS011;61687;56.232;43.854;2022-09-16T12:07:08;8.02;;;4.20;;
73452;SDS011;61687;56.232;43.854;2022-09-16T12:09:50;5.72;;;4.10;;
73452;SDS011;61687;56.232;43.854;2022-09-16T12:12:55;4.80;;;3.50;;
73452;SDS011;61687;56.232;43.854;2022-09-16T12:18:29;5.90;;;3.95;;
73452;SDS011;61687;56.232;43.854;2022-09-16T12:23:42;11.55;;;4.53;;
73452;SDS011;61687;56.232;43.854;2022-09-16T12:26:13;6.53;;;4.60;;
73452;SDS011;61687;56.232;43.854;2022-09-16T12:28:55;8.68;;;4.90;;
73452;SDS011;61687;56.232;43.854;2022-09-16T12:31:29;7.25;;;4.43;;
73452;SDS011;61687;56.232;43.854;2022-09-16T12:34:02;7.22;;;3.80;;
73452;SDS011;61687;56.232;43.854;2022-09-16T12:36:34;6.95;;;4.25;;
73452;SDS011;61687;56.232;43.854;2022-09-16T12:39:03;6.00;;;4.00;;
73452;SDS011;61687;56.232;43.854;2022-09-16T12:53:08;9.97;;;5.83;;
73452;SDS011;61687;56.232;43.854;2022-09-16T12:55:34;10.95;;;6.60;;
73452;SDS011;61687;56.232;43.854;2022-09-16T13:03:42;19.25;;;5.88;;
73452;SDS011;61687;56.232;43.854;2022-09-16T13:06:16;12.30;;;6.20;;
73452;SDS011;61687;56.232;43.854;2022-09-16T13:08:54;12.23;;;5.80;;
73452;SDS011;61687;56.232;43.854;2022-09-16T13:11:26;18.98;;;7.50;;
73452;SDS011;61687;56.232;43.854;2022-09-16T13:13:54;12.80;;;6.40;;
73452;SDS011;61687;56.232;43.854;2022-09-16T13:16:40;14.45;;;6.30;;
73452;SDS011;61687;56.232;43.854;2022-09-16T13:21:56;8.52;;;5.22;;
73452;SDS011;61687;56.232;43.854;2022-09-16T13:26:51;9.07;;;4.72;;
73452;SDS011;61687;56.232;43.854;2022-09-16T13:32:04;9.35;;;4.10;;
73452;SDS011;61687;56.232;43.854;2022-09-16T13:34:30;8.85;;;3.55;;
73452;SDS011;61687;56.232;43.854;2022-09-16T13:36:56;4.82;;;3.00;;
73452;SDS011;61687;56.232;43.854;2022-09-16T13:39:31;4.77;;;3.33;;
73452;SDS011;61687;56.232;43.854;2022-09-16T13:42:17;4.50;;;3.33;;
73452;SDS011;61687;56.232;43.854;2022-09-16T13:44:45;4.40;;;2.92;;
73452;SDS011;61687;56.232;43.854;2022-09-16T13:49:49;5.25;;;3.53;;
73452;SDS011;61687;56.232;43.854;2022-09-16T13:52:24;5.60;;;3.37;;
73452;SDS011;61687;56.232;43.854;2022-09-16T13:54:54;6.15;;;3.53;;
73452;SDS011;61687;56.232;43.854;2022-09-16T14:00:25;5.75;;;4.28;;
73452;SDS011;61687;56.232;43.854;2022-09-16T14:13:56;6.78;;;3.85;;
73452;SDS011;61687;56.232;43.854;2022-09-16T14:16:31;7.60;;;3.90;;
73452;SDS011;61687;56.232;43.854;2022-09-16T14:19:32;9.93;;;4.50;;
73452;SDS011;61687;56.232;43.854;2022-09-16T14:22:11;7.07;;;4.43;;
73452;SDS011;61687;56.232;43.854;2022-09-16T14:24:41;6.90;;;4.70;;
73452;SDS011;61687;56.232;43.854;2022-09-16T14:30:14;8.87;;;4.77;;
73452;SDS011;61687;56.232;43.854;2022-09-16T14:32:42;9.75;;;5.47;;
73452;SDS011;61687;56.232;43.854;2022-09-16T14:35:11;10.05;;;5.80;;
73452;SDS011;61687;56.232;43.854;2022-09-16T14:37:43;10.32;;;5.97;;
73452;SDS011;61687;56.232;43.854;2022-09-16T14:40:12;10.30;;;6.55;;
73452;SDS011;61687;56.232;43.854;2022-09-16T14:42:47;12.67;;;6.60;;
73452;SDS011;61687;56.232;43.854;2022-09-16T14:45:14;10.00;;;6.70;;
73452;SDS011;61687;56.232;43.854;2022-09-16T14:47:41;13.43;;;7.07;;
73452;SDS011;61687;56.232;43.854;2022-09-16T14:50:11;10.82;;;6.05;;
73452;SDS011;61687;56.232;43.854;2022-09-16T14:52:40;17.98;;;6.78;;
73452;SDS011;61687;56.232;43.854;2022-09-16T14:55:18;12.13;;;6.83;;
73452;SDS011;61687;56.232;43.854;2022-09-16T14:57:46;14.20;;;6.80;;
73452;SDS011;61687;56.232;43.854;2022-09-16T15:00:12;14.13;;;6.10;;
73452;SDS011;61687;56.232;43.854;2022-09-16T15:05:36;11.10;;;6.28;;
73452;SDS011;61687;56.232;43.854;2022-09-16T15:08:25;11.53;;;6.77;;
73452;SDS011;61687;56.232;43.854;2022-09-16T15:10:56;12.73;;;6.63;;
73452;SDS011;61687;56.232;43.854;2022-09-16T15:13:25;16.80;;;6.50;;
73452;SDS011;61687;56.232;43.854;2022-09-16T15:15:54;11.02;;;6.05;;
73452;SDS011;61687;56.232;43.854;2022-09-16T15:18:22;11.90;;;6.63;;
73452;SDS011;61687;56.232;43.854;2022-09-16T15:23:37;13.40;;;7.55;;
73452;SDS011;61687;56.232;43.854;2022-09-16T15:26:17;11.52;;;6.53;;
73452;SDS011;61687;56.232;43.854;2022-09-16T15:28:55;11.48;;;6.25;;
73452;SDS011;61687;56.232;43.854;2022-09-16T15:31:25;10.50;;;5.65;;
73452;SDS011;61687;56.232;43.854;2022-09-16T15:33:57;9.50;;;4.93;;
73452;SDS011;61687;56.232;43.854;2022-09-16T15:36:35;11.57;;;5.55;;
73452;SDS011;61687;56.232;43.854;2022-09-16T15:39:03;11.18;;;5.03;;
73452;SDS011;61687;56.232;43.854;2022-09-16T15:41:30;11.95;;;5.70;;
73452;SDS011;61687;56.232;43.854;2022-09-16T15:43:56;10.83;;;5.63;;
73452;SDS011;61687;56.232;43.854;2022-09-16T15:46:24;11.65;;;6.15;;
73452;SDS011;61687;56.232;43.854;2022-09-16T15:48:51;13.18;;;6.47;;
73452;SDS011;61687;56.232;43.854;2022-09-16T15:54:04;18.85;;;7.75;;
73452;SDS011;61687;56.232;43.854;2022-09-16T15:59:26;15.23;;;7.47;;
73452;SDS011;61687;56.232;43.854;2022-09-16T16:01:57;23.88;;;12.73;;
73452;SDS011;61687;56.232;43.854;2022-09-16T16:04:33;18.17;;;8.98;;
73452;SDS011;61687;56.232;43.854;2022-09-16T16:07:03;21.40;;;10.40;;
73452;SDS011;61687;56.232;43.854;2022-09-16T16:09:32;14.50;;;7.77;;
73452;SDS011;61687;56.232;43.854;2022-09-16T16:12:03;15.68;;;8.77;;
73452;SDS011;61687;56.232;43.854;2022-09-16T16:14:35;15.68;;;8.98;;
73452;SDS011;61687;56.232;43.854;2022-09-16T16:17:03;17.08;;;9.70;;
73452;SDS011;61687;56.232;43.854;2022-09-16T16:19:37;58.47;;;25.52;;
73452;SDS011;61687;56.232;43.854;2022-09-16T16:22:06;30.30;;;14.07;;
73452;SDS011;61687;56.232;43.854;2022-09-16T16:24:32;24.95;;;12.05;;
73452;SDS011;61687;56.232;43.854;2022-09-16T16:26:58;24.50;;;12.68;;
73452;SDS011;61687;56.232;43.854;2022-09-16T16:29:24;15.13;;;8.27;;
73452;SDS011;61687;56.232;43.854;2022-09-16T16:32:09;12.03;;;6.93;;
73452;SDS011;61687;56.232;43.854;2022-09-16T16:34:41;16.02;;;6.88;;
73452;SDS011;61687;56.232;43.854;2022-09-16T16:37:12;12.98;;;6.32;;
73452;SDS011;61687;56.232;43.854;2022-09-16T16:39:39;13.32;;;7.07;;
73452;SDS011;61687;56.232;43.854;2022-09-16T16:42:05;12.27;;;7.07;;
73452;SDS011;61687;56.232;43.854;2022-09-16T16:44:32;14.70;;;7.90;;
73452;SDS011;61687;56.232;43.854;2022-09-16T16:46:59;13.90;;;6.53;;
73452;SDS011;61687;56.232;43.854;2022-09-16T16:49:25;13.15;;;6.90;;
73452;SDS011;61687;56.232;43.854;2022-09-16T16:51:51;14.73;;;7.38;;
73452;SDS011;61687;56.232;43.854;2022-09-16T16:54:19;14.63;;;7.97;;
73452;SDS011;61687;56.232;43.854;2022-09-16T16:56:46;12.52;;;7.50;;
73452;SDS011;61687;56.232;43.854;2022-09-16T16:59:12;14.15;;;7.03;;
73452;SDS011;61687;56.232;43.854;2022-09-16T17:01:39;9.85;;;6.82;;
73452;SDS011;61687;56.232;43.854;2022-09-16T17:04:06;10.95;;;7.03;;
73452;SDS011;61687;56.232;43.854;2022-09-16T17:06:32;9.57;;;6.23;;
73452;SDS011;61687;56.232;43.854;2022-09-16T17:08:59;11.38;;;6.88;;
73452;SDS011;61687;56.232;43.854;2022-09-16T17:11:26;11.75;;;6.53;;
73452;SDS011;61687;56.232;43.854;2022-09-16T17:13:54;10.75;;;5.97;;
73452;SDS011;61687;56.232;43.854;2022-09-16T17:16:23;9.98;;;6.80;;
73452;SDS011;61687;56.232;43.854;2022-09-16T17:18:50;9.87;;;6.37;;
73452;SDS011;61687;56.232;43.854;2022-09-16T17:21:20;10.88;;;6.15;;
73452;SDS011;61687;56.232;43.854;2022-09-16T17:23:48;9.35;;;5.70;;
73452;SDS011;61687;56.232;43.854;2022-09-16T17:26:13;8.85;;;6.22;;
73452;SDS011;61687;56.232;43.854;2022-09-16T17:28:41;8.40;;;5.60;;
73452;SDS011;61687;56.232;43.854;2022-09-16T17:31:19;7.53;;;5.30;;
73452;SDS011;61687;56.232;43.854;2022-09-16T17:33:48;10.82;;;6.15;;
73452;SDS011;61687;56.232;43.854;2022-09-16T17:36:18;8.43;;;5.60;;
73452;SDS011;61687;56.232;43.854;2022-09-16T17:38:45;10.60;;;6.05;;
73452;SDS011;61687;56.232;43.854;2022-09-16T17:41:12;11.10;;;6.07;;
73452;SDS011;61687;56.232;43.854;2022-09-16T17:43:40;11.40;;;6.25;;
73452;SDS011;61687;56.232;43.854;2022-09-16T17:46:09;10.70;;;6.47;;
73452;SDS011;61687;56.232;43.854;2022-09-16T17:48:38;10.02;;;6.22;;
73452;SDS011;61687;56.232;43.854;2022-09-16T17:51:04;8.93;;;5.15;;
73452;SDS011;61687;56.232;43.854;2022-09-16T17:53:30;9.83;;;6.33;;
73452;SDS011;61687;56.232;43.854;2022-09-16T17:56:01;8.90;;;6.25;;